sensor_id;sensor_type;location;lat;lon;timestamp;temperature;humidity
19168;DHT22;9716;53.114;18.040;2023-04-01T00:01:11;11.70;99.90
19168;DHT22;9716;53.114;18.040;2023-04-01T00:03:40;11.70;99.90
19168;DHT22;9716;53.114;18.040;2023-04-01T00:06:10;11.70;99.90
19168;DHT22;9716;53.114;18.040;2023-04-01T00:08:39;11.70;99.90
19168;DHT22;9716;53.114;18.040;2023-04-01T00:11:09;11.70;99.90
19168;DHT22;9716;53.114;18.040;2023-04-01T00:13:37;11.60;99.90
19168;DHT22;9716;53.114;18.040;2023-04-01T00:16:06;11.60;99.90
19168;DHT22;9716;53.114;18.040;2023-04-01T00:18:46;11.60;99.90
19168;DHT22;9716;53.114;18.040;2023-04-01T00:21:15;11.60;99.90
19168;DHT22;9716;53.114;18.040;2023-04-01T00:23:44;11.60;99.90
19168;DHT22;9716;53.114;18.040;2023-04-01T00:26:14;11.50;99.90
19168;DHT22;9716;53.114;18.040;2023-04-01T00:28:46;11.50;99.90
19168;DHT22;9716;53.114;18.040;2023-04-01T00:31:14;11.50;99.90
19168;DHT22;9716;53.114;18.040;2023-04-01T00:33:43;11.50;99.90
19168;DHT22;9716;53.114;18.040;2023-04-01T00:36:12;11.50;99.90
19168;DHT22;9716;53.114;18.040;2023-04-01T00:38:42;11.50;99.90
19168;DHT22;9716;53.114;18.040;2023-04-01T00:41:12;11.50;99.90
19168;DHT22;9716;53.114;18.040;2023-04-01T00:43:44;11.50;99.90
19168;DHT22;9716;53.114;18.040;2023-04-01T00:46:13;11.50;99.90
19168;DHT22;9716;53.114;18.040;2023-04-01T00:48:45;11.50;99.90
19168;DHT22;9716;53.114;18.040;2023-04-01T00:51:18;11.50;99.90
19168;DHT22;9716;53.114;18.040;2023-04-01T00:53:50;11.50;99.90
19168;DHT22;9716;53.114;18.040;2023-04-01T00:56:22;11.50;99.90
19168;DHT22;9716;53.114;18.040;2023-04-01T00:58:57;11.50;99.90
19168;DHT22;9716;53.114;18.040;2023-04-01T01:01:28;11.50;99.90
19168;DHT22;9716;53.114;18.040;2023-04-01T01:03:57;11.50;99.90
19168;DHT22;9716;53.114;18.040;2023-04-01T01:06:42;11.50;99.90
19168;DHT22;9716;53.114;18.040;2023-04-01T01:09:25;11.50;99.90
19168;DHT22;9716;53.114;18.040;2023-04-01T01:12:04;11.50;99.90
19168;DHT22;9716;53.114;18.040;2023-04-01T01:14:43;11.50;99.90
19168;DHT22;9716;53.114;18.040;2023-04-01T01:17:17;11.50;99.90
19168;DHT22;9716;53.114;18.040;2023-04-01T01:25:57;11.40;99.90
19168;DHT22;9716;53.114;18.040;2023-04-01T01:28:36;11.40;99.90
19168;DHT22;9716;53.114;18.040;2023-04-01T01:31:16;11.40;99.90
19168;DHT22;9716;53.114;18.040;2023-04-01T01:33:59;11.40;99.90
19168;DHT22;9716;53.114;18.040;2023-04-01T01:36:33;11.40;99.90
19168;DHT22;9716;53.114;18.040;2023-04-01T01:39:03;11.40;99.90
19168;DHT22;9716;53.114;18.040;2023-04-01T01:41:34;11.30;99.90
19168;DHT22;9716;53.114;18.040;2023-04-01T01:44:05;11.30;99.90
19168;DHT22;9716;53.114;18.040;2023-04-01T01:46:35;11.30;99.90
19168;DHT22;9716;53.114;18.040;2023-04-01T01:49:05;11.20;99.90
19168;DHT22;9716;53.114;18.040;2023-04-01T01:51:36;11.10;99.90
19168;DHT22;9716;53.114;18.040;2023-04-01T01:54:04;11.10;99.90
19168;DHT22;9716;53.114;18.040;2023-04-01T01:56:34;11.00;99.90
19168;DHT22;9716;53.114;18.040;2023-04-01T01:59:05;10.90;99.90
19168;DHT22;9716;53.114;18.040;2023-04-01T02:01:39;10.90;99.90
19168;DHT22;9716;53.114;18.040;2023-04-01T02:04:10;10.90;99.90
19168;DHT22;9716;53.114;18.040;2023-04-01T02:06:44;10.80;99.90
19168;DHT22;9716;53.114;18.040;2023-04-01T02:09:15;10.80;99.90
19168;DHT22;9716;53.114;18.040;2023-04-01T02:11:47;10.80;99.90
19168;DHT22;9716;53.114;18.040;2023-04-01T02:14:19;10.70;99.90
19168;DHT22;9716;53.114;18.040;2023-04-01T02:16:53;10.70;99.90
19168;DHT22;9716;53.114;18.040;2023-04-01T02:19:29;10.70;99.90
19168;DHT22;9716;53.114;18.040;2023-04-01T02:22:02;10.70;99.90
19168;DHT22;9716;53.114;18.040;2023-04-01T02:24:33;10.70;99.90
19168;DHT22;9716;53.114;18.040;2023-04-01T02:27:03;10.70;99.90
19168;DHT22;9716;53.114;18.040;2023-04-01T02:29:32;10.70;99.90
19168;DHT22;9716;53.114;18.040;2023-04-01T02:32:01;10.70;99.90
19168;DHT22;9716;53.114;18.040;2023-04-01T02:34:30;10.70;99.90
19168;DHT22;9716;53.114;18.040;2023-04-01T02:37:00;10.70;99.90
19168;DHT22;9716;53.114;18.040;2023-04-01T02:39:29;10.60;99.90
19168;DHT22;9716;53.114;18.040;2023-04-01T02:41:58;10.60;99.90
19168;DHT22;9716;53.114;18.040;2023-04-01T02:44:27;10.60;99.90
19168;DHT22;9716;53.114;18.040;2023-04-01T02:46:55;10.60;99.90
19168;DHT22;9716;53.114;18.040;2023-04-01T02:49:23;10.60;99.90
19168;DHT22;9716;53.114;18.040;2023-04-01T02:51:51;10.60;99.90
19168;DHT22;9716;53.114;18.040;2023-04-01T02:54:21;10.60;99.90
19168;DHT22;9716;53.114;18.040;2023-04-01T02:56:50;10.50;99.90
19168;DHT22;9716;53.114;18.040;2023-04-01T02:59:18;10.50;99.90
19168;DHT22;9716;53.114;18.040;2023-04-01T03:01:46;10.50;99.90
19168;DHT22;9716;53.114;18.040;2023-04-01T03:04:15;10.50;99.90
19168;DHT22;9716;53.114;18.040;2023-04-01T03:06:43;10.50;99.90
19168;DHT22;9716;53.114;18.040;2023-04-01T03:09:13;10.50;99.90
19168;DHT22;9716;53.114;18.040;2023-04-01T03:11:44;10.50;99.90
19168;DHT22;9716;53.114;18.040;2023-04-01T03:14:12;10.50;99.90
19168;DHT22;9716;53.114;18.040;2023-04-01T03:16:41;10.40;99.90
19168;DHT22;9716;53.114;18.040;2023-04-01T03:19:10;10.40;99.90
19168;DHT22;9716;53.114;18.040;2023-04-01T03:21:38;10.40;99.90
19168;DHT22;9716;53.114;18.040;2023-04-01T03:24:07;10.40;99.90
19168;DHT22;9716;53.114;18.040;2023-04-01T03:26:35;10.30;99.90
19168;DHT22;9716;53.114;18.040;2023-04-01T03:29:05;10.30;99.90
19168;DHT22;9716;53.114;18.040;2023-04-01T03:31:33;10.20;99.90
19168;DHT22;9716;53.114;18.040;2023-04-01T03:34:02;10.20;99.90
19168;DHT22;9716;53.114;18.040;2023-04-01T03:36:30;10.20;99.90
19168;DHT22;9716;53.114;18.040;2023-04-01T03:38:59;10.10;99.90
19168;DHT22;9716;53.114;18.040;2023-04-01T03:41:27;10.10;99.90
19168;DHT22;9716;53.114;18.040;2023-04-01T03:43:56;10.10;99.90
19168;DHT22;9716;53.114;18.040;2023-04-01T03:46:26;10.00;99.90
19168;DHT22;9716;53.114;18.040;2023-04-01T03:48:54;10.00;99.90
19168;DHT22;9716;53.114;18.040;2023-04-01T03:51:23;9.90;99.90
19168;DHT22;9716;53.114;18.040;2023-04-01T03:53:51;9.90;99.90
19168;DHT22;9716;53.114;18.040;2023-04-01T03:56:20;9.90;99.90
19168;DHT22;9716;53.114;18.040;2023-04-01T03:58:48;9.80;99.90
19168;DHT22;9716;53.114;18.040;2023-04-01T04:01:18;9.80;99.90
19168;DHT22;9716;53.114;18.040;2023-04-01T04:03:50;9.80;99.90
19168;DHT22;9716;53.114;18.040;2023-04-01T04:06:19;9.80;99.90
19168;DHT22;9716;53.114;18.040;2023-04-01T04:08:48;9.70;99.90
19168;DHT22;9716;53.114;18.040;2023-04-01T04:11:16;9.70;99.90
19168;DHT22;9716;53.114;18.040;2023-04-01T04:13:45;9.70;99.90
19168;DHT22;9716;53.114;18.040;2023-04-01T04:16:15;9.60;99.90
19168;DHT22;9716;53.114;18.040;2023-04-01T04:18:44;9.60;99.90
19168;DHT22;9716;53.114;18.040;2023-04-01T04:21:14;9.60;99.90
19168;DHT22;9716;53.114;18.040;2023-04-01T04:23:47;9.50;99.90
19168;DHT22;9716;53.114;18.040;2023-04-01T04:26:18;9.50;99.90
19168;DHT22;9716;53.114;18.040;2023-04-01T04:28:47;9.40;99.90
19168;DHT22;9716;53.114;18.040;2023-04-01T04:31:18;9.40;99.90
19168;DHT22;9716;53.114;18.040;2023-04-01T04:33:49;9.30;99.90
19168;DHT22;9716;53.114;18.040;2023-04-01T04:36:20;9.30;99.90
19168;DHT22;9716;53.114;18.040;2023-04-01T04:38:51;9.30;99.90
19168;DHT22;9716;53.114;18.040;2023-04-01T04:41:22;9.20;99.90
19168;DHT22;9716;53.114;18.040;2023-04-01T04:43:56;9.20;99.90
19168;DHT22;9716;53.114;18.040;2023-04-01T04:46:25;9.10;99.90
19168;DHT22;9716;53.114;18.040;2023-04-01T04:48:55;9.10;99.90
19168;DHT22;9716;53.114;18.040;2023-04-01T04:51:26;9.10;99.90
19168;DHT22;9716;53.114;18.040;2023-04-01T04:53:55;9.10;99.90
19168;DHT22;9716;53.114;18.040;2023-04-01T04:56:24;9.00;99.90
19168;DHT22;9716;53.114;18.040;2023-04-01T04:58:56;9.00;99.90
19168;DHT22;9716;53.114;18.040;2023-04-01T05:01:25;9.00;99.90
19168;DHT22;9716;53.114;18.040;2023-04-01T05:03:55;8.90;99.90
19168;DHT22;9716;53.114;18.040;2023-04-01T05:06:23;8.90;99.90
19168;DHT22;9716;53.114;18.040;2023-04-01T05:08:54;8.90;99.90
19168;DHT22;9716;53.114;18.040;2023-04-01T05:11:23;8.80;99.90
19168;DHT22;9716;53.114;18.040;2023-04-01T05:13:53;8.80;99.90
19168;DHT22;9716;53.114;18.040;2023-04-01T05:16:22;8.70;99.90
19168;DHT22;9716;53.114;18.040;2023-04-01T05:18:52;8.70;99.90
19168;DHT22;9716;53.114;18.040;2023-04-01T05:21:21;8.60;99.90
19168;DHT22;9716;53.114;18.040;2023-04-01T05:23:59;8.60;99.90
19168;DHT22;9716;53.114;18.040;2023-04-01T05:26:28;8.50;99.90
19168;DHT22;9716;53.114;18.040;2023-04-01T05:28:59;8.50;99.90
19168;DHT22;9716;53.114;18.040;2023-04-01T05:31:27;8.50;99.90
19168;DHT22;9716;53.114;18.040;2023-04-01T05:33:57;8.50;99.90
19168;DHT22;9716;53.114;18.040;2023-04-01T05:36:26;8.50;99.90
19168;DHT22;9716;53.114;18.040;2023-04-01T05:38:55;8.60;99.90
19168;DHT22;9716;53.114;18.040;2023-04-01T05:41:25;8.60;99.90
19168;DHT22;9716;53.114;18.040;2023-04-01T05:43:54;8.60;99.90
19168;DHT22;9716;53.114;18.040;2023-04-01T05:46:23;8.60;99.90
19168;DHT22;9716;53.114;18.040;2023-04-01T05:48:52;8.60;99.90
19168;DHT22;9716;53.114;18.040;2023-04-01T05:51:23;8.70;99.90
19168;DHT22;9716;53.114;18.040;2023-04-01T05:53:52;8.70;99.90
19168;DHT22;9716;53.114;18.040;2023-04-01T05:56:21;8.70;99.90
19168;DHT22;9716;53.114;18.040;2023-04-01T05:58:53;8.60;99.90
19168;DHT22;9716;53.114;18.040;2023-04-01T06:01:22;8.60;99.90
19168;DHT22;9716;53.114;18.040;2023-04-01T06:03:51;8.60;99.90
19168;DHT22;9716;53.114;18.040;2023-04-01T06:06:23;8.60;99.90
19168;DHT22;9716;53.114;18.040;2023-04-01T06:08:56;8.50;99.90
19168;DHT22;9716;53.114;18.040;2023-04-01T06:11:31;8.50;99.90
19168;DHT22;9716;53.114;18.040;2023-04-01T06:14:16;8.50;99.90
19168;DHT22;9716;53.114;18.040;2023-04-01T06:16:59;8.50;99.90
19168;DHT22;9716;53.114;18.040;2023-04-01T06:19:39;8.50;99.90
19168;DHT22;9716;53.114;18.040;2023-04-01T06:22:46;8.50;99.90
19168;DHT22;9716;53.114;18.040;2023-04-01T06:25:29;8.50;99.90
19168;DHT22;9716;53.114;18.040;2023-04-01T06:28:27;8.50;99.90
19168;DHT22;9716;53.114;18.040;2023-04-01T06:31:05;8.60;99.90
19168;DHT22;9716;53.114;18.040;2023-04-01T06:33:51;8.50;99.90
19168;DHT22;9716;53.114;18.040;2023-04-01T06:36:35;8.60;99.90
19168;DHT22;9716;53.114;18.040;2023-04-01T06:39:30;8.60;99.90
19168;DHT22;9716;53.114;18.040;2023-04-01T06:42:14;8.60;99.90
19168;DHT22;9716;53.114;18.040;2023-04-01T06:44:52;8.60;99.90
19168;DHT22;9716;53.114;18.040;2023-04-01T06:47:34;8.70;99.90
19168;DHT22;9716;53.114;18.040;2023-04-01T06:50:17;8.70;99.90
19168;DHT22;9716;53.114;18.040;2023-04-01T06:52:52;8.70;99.90
19168;DHT22;9716;53.114;18.040;2023-04-01T06:55:32;8.80;99.90
19168;DHT22;9716;53.114;18.040;2023-04-01T06:58:09;8.80;99.90
19168;DHT22;9716;53.114;18.040;2023-04-01T07:00:42;8.80;99.90
19168;DHT22;9716;53.114;18.040;2023-04-01T07:03:18;8.70;99.90
19168;DHT22;9716;53.114;18.040;2023-04-01T07:05:49;8.70;99.90
19168;DHT22;9716;53.114;18.040;2023-04-01T07:08:21;8.70;99.90
19168;DHT22;9716;53.114;18.040;2023-04-01T07:10:54;8.70;99.90
19168;DHT22;9716;53.114;18.040;2023-04-01T07:13:28;8.70;99.90
19168;DHT22;9716;53.114;18.040;2023-04-01T07:16:11;8.80;99.90
19168;DHT22;9716;53.114;18.040;2023-04-01T07:18:46;8.80;99.90
19168;DHT22;9716;53.114;18.040;2023-04-01T07:21:25;8.80;99.90
19168;DHT22;9716;53.114;18.040;2023-04-01T07:23:57;8.80;99.90
19168;DHT22;9716;53.114;18.040;2023-04-01T07:26:28;8.80;99.90
19168;DHT22;9716;53.114;18.040;2023-04-01T07:28:56;8.80;99.90
19168;DHT22;9716;53.114;18.040;2023-04-01T07:34:32;8.80;99.90
19168;DHT22;9716;53.114;18.040;2023-04-01T07:37:07;8.90;99.90
19168;DHT22;9716;53.114;18.040;2023-04-01T07:39:45;8.90;99.90
19168;DHT22;9716;53.114;18.040;2023-04-01T07:42:24;8.80;99.90
19168;DHT22;9716;53.114;18.040;2023-04-01T07:45:04;8.90;99.90
19168;DHT22;9716;53.114;18.040;2023-04-01T07:47:44;8.90;99.90
19168;DHT22;9716;53.114;18.040;2023-04-01T07:50:19;8.90;99.90
19168;DHT22;9716;53.114;18.040;2023-04-01T07:52:54;8.90;99.90
19168;DHT22;9716;53.114;18.040;2023-04-01T07:55:31;8.90;99.90
19168;DHT22;9716;53.114;18.040;2023-04-01T07:58:07;9.00;99.90
19168;DHT22;9716;53.114;18.040;2023-04-01T08:00:44;9.00;99.90
19168;DHT22;9716;53.114;18.040;2023-04-01T08:03:25;9.00;99.90
19168;DHT22;9716;53.114;18.040;2023-04-01T08:06:04;9.00;99.90
19168;DHT22;9716;53.114;18.040;2023-04-01T08:08:43;8.90;99.90
19168;DHT22;9716;53.114;18.040;2023-04-01T08:11:25;9.00;99.90
19168;DHT22;9716;53.114;18.040;2023-04-01T08:14:03;8.90;99.90
19168;DHT22;9716;53.114;18.040;2023-04-01T08:16:39;8.90;99.90
19168;DHT22;9716;53.114;18.040;2023-04-01T08:19:16;8.90;99.90
19168;DHT22;9716;53.114;18.040;2023-04-01T08:21:52;8.90;99.90
19168;DHT22;9716;53.114;18.040;2023-04-01T08:24:27;8.90;99.90
19168;DHT22;9716;53.114;18.040;2023-04-01T08:27:16;8.90;99.90
19168;DHT22;9716;53.114;18.040;2023-04-01T08:29:49;8.80;99.90
19168;DHT22;9716;53.114;18.040;2023-04-01T08:32:23;8.80;99.90
19168;DHT22;9716;53.114;18.040;2023-04-01T08:35:01;8.70;99.90
19168;DHT22;9716;53.114;18.040;2023-04-01T08:37:36;8.70;99.90
19168;DHT22;9716;53.114;18.040;2023-04-01T08:40:25;8.70;99.90
19168;DHT22;9716;53.114;18.040;2023-04-01T08:43:06;8.80;99.90
19168;DHT22;9716;53.114;18.040;2023-04-01T08:45:48;8.80;99.90
19168;DHT22;9716;53.114;18.040;2023-04-01T08:48:43;8.90;99.90
19168;DHT22;9716;53.114;18.040;2023-04-01T08:51:44;8.90;99.90
19168;DHT22;9716;53.114;18.040;2023-04-01T08:54:30;9.00;99.90
19168;DHT22;9716;53.114;18.040;2023-04-01T08:57:09;9.10;99.90
19168;DHT22;9716;53.114;18.040;2023-04-01T08:59:50;9.10;99.90
19168;DHT22;9716;53.114;18.040;2023-04-01T09:02:49;9.10;99.90
19168;DHT22;9716;53.114;18.040;2023-04-01T09:05:31;9.10;99.90
19168;DHT22;9716;53.114;18.040;2023-04-01T09:08:12;9.20;99.90
19168;DHT22;9716;53.114;18.040;2023-04-01T09:11:02;9.10;99.90
19168;DHT22;9716;53.114;18.040;2023-04-01T09:13:46;9.10;99.90
19168;DHT22;9716;53.114;18.040;2023-04-01T09:16:31;9.20;99.90
19168;DHT22;9716;53.114;18.040;2023-04-01T09:22:03;9.20;99.90
19168;DHT22;9716;53.114;18.040;2023-04-01T09:27:43;9.30;99.90
19168;DHT22;9716;53.114;18.040;2023-04-01T09:30:33;9.40;99.90
19168;DHT22;9716;53.114;18.040;2023-04-01T09:33:25;9.40;99.90
19168;DHT22;9716;53.114;18.040;2023-04-01T09:36:07;9.50;99.90
19168;DHT22;9716;53.114;18.040;2023-04-01T09:38:53;9.50;99.90
19168;DHT22;9716;53.114;18.040;2023-04-01T09:41:30;9.50;99.90
19168;DHT22;9716;53.114;18.040;2023-04-01T09:44:03;9.70;99.90
19168;DHT22;9716;53.114;18.040;2023-04-01T09:49:42;9.80;99.90
19168;DHT22;9716;53.114;18.040;2023-04-01T09:52:24;9.90;99.90
19168;DHT22;9716;53.114;18.040;2023-04-01T09:55:06;9.90;99.90
19168;DHT22;9716;53.114;18.040;2023-04-01T09:58:01;9.80;99.90
19168;DHT22;9716;53.114;18.040;2023-04-01T10:00:44;9.90;99.90
19168;DHT22;9716;53.114;18.040;2023-04-01T10:03:58;9.90;99.90
19168;DHT22;9716;53.114;18.040;2023-04-01T10:10:04;9.90;99.90
19168;DHT22;9716;53.114;18.040;2023-04-01T10:16:20;9.90;99.90
19168;DHT22;9716;53.114;18.040;2023-04-01T10:22:22;9.80;99.90
19168;DHT22;9716;53.114;18.040;2023-04-01T10:28:20;9.80;99.90
19168;DHT22;9716;53.114;18.040;2023-04-01T10:37:09;9.60;99.90
19168;DHT22;9716;53.114;18.040;2023-04-01T10:40:20;9.60;99.90
19168;DHT22;9716;53.114;18.040;2023-04-01T10:43:21;9.60;99.90
19168;DHT22;9716;53.114;18.040;2023-04-01T10:46:24;9.60;99.90
19168;DHT22;9716;53.114;18.040;2023-04-01T10:52:48;9.70;99.90
19168;DHT22;9716;53.114;18.040;2023-04-01T10:55:37;9.80;99.90
19168;DHT22;9716;53.114;18.040;2023-04-01T11:01:56;9.90;99.90
19168;DHT22;9716;53.114;18.040;2023-04-01T11:08:44;10.00;99.90
19168;DHT22;9716;53.114;18.040;2023-04-01T11:20:56;10.10;99.90
19168;DHT22;9716;53.114;18.040;2023-04-01T11:23:48;10.10;99.90
19168;DHT22;9716;53.114;18.040;2023-04-01T11:26:44;10.00;99.90
19168;DHT22;9716;53.114;18.040;2023-04-01T11:29:40;10.00;99.90
19168;DHT22;9716;53.114;18.040;2023-04-01T11:32:35;10.00;99.90
19168;DHT22;9716;53.114;18.040;2023-04-01T11:35:25;10.00;99.90
19168;DHT22;9716;53.114;18.040;2023-04-01T11:38:02;10.00;99.90
19168;DHT22;9716;53.114;18.040;2023-04-01T11:40:41;10.00;99.90
19168;DHT22;9716;53.114;18.040;2023-04-01T11:43:19;9.90;99.90
19168;DHT22;9716;53.114;18.040;2023-04-01T11:46:07;9.90;99.90
19168;DHT22;9716;53.114;18.040;2023-04-01T11:48:54;9.90;99.90
19168;DHT22;9716;53.114;18.040;2023-04-01T11:51:59;10.00;99.90
19168;DHT22;9716;53.114;18.040;2023-04-01T11:54:45;10.00;99.90
19168;DHT22;9716;53.114;18.040;2023-04-01T11:57:35;10.00;99.90
19168;DHT22;9716;53.114;18.040;2023-04-01T12:00:18;10.00;99.90
19168;DHT22;9716;53.114;18.040;2023-04-01T12:03:05;10.10;99.90
19168;DHT22;9716;53.114;18.040;2023-04-01T12:05:43;10.30;99.90
19168;DHT22;9716;53.114;18.040;2023-04-01T12:08:26;10.40;99.90
19168;DHT22;9716;53.114;18.040;2023-04-01T12:11:02;10.50;99.90
19168;DHT22;9716;53.114;18.040;2023-04-01T12:13:40;10.60;99.90
19168;DHT22;9716;53.114;18.040;2023-04-01T12:16:39;10.70;99.90
19168;DHT22;9716;53.114;18.040;2023-04-01T12:19:16;10.70;99.90
19168;DHT22;9716;53.114;18.040;2023-04-01T12:21:52;10.80;99.90
19168;DHT22;9716;53.114;18.040;2023-04-01T12:24:46;10.80;99.90
19168;DHT22;9716;53.114;18.040;2023-04-01T12:27:34;10.80;99.90
19168;DHT22;9716;53.114;18.040;2023-04-01T12:30:35;10.80;99.90
19168;DHT22;9716;53.114;18.040;2023-04-01T12:33:31;10.80;99.90
19168;DHT22;9716;53.114;18.040;2023-04-01T12:36:13;10.90;99.90
19168;DHT22;9716;53.114;18.040;2023-04-01T12:38:57;10.90;99.90
19168;DHT22;9716;53.114;18.040;2023-04-01T12:41:38;11.00;99.90
19168;DHT22;9716;53.114;18.040;2023-04-01T12:44:27;10.90;99.90
19168;DHT22;9716;53.114;18.040;2023-04-01T12:47:13;10.90;99.90
19168;DHT22;9716;53.114;18.040;2023-04-01T12:49:56;10.80;99.90
19168;DHT22;9716;53.114;18.040;2023-04-01T12:52:39;10.80;99.90
19168;DHT22;9716;53.114;18.040;2023-04-01T12:58:35;10.70;99.90
19168;DHT22;9716;53.114;18.040;2023-04-01T13:01:23;10.70;99.90
19168;DHT22;9716;53.114;18.040;2023-04-01T13:04:29;10.60;99.90
19168;DHT22;9716;53.114;18.040;2023-04-01T13:10:02;10.50;99.90
19168;DHT22;9716;53.114;18.040;2023-04-01T13:12:50;10.50;99.90
19168;DHT22;9716;53.114;18.040;2023-04-01T13:15:26;10.50;99.90
19168;DHT22;9716;53.114;18.040;2023-04-01T13:18:05;10.50;99.90
19168;DHT22;9716;53.114;18.040;2023-04-01T13:20:45;10.50;99.90
19168;DHT22;9716;53.114;18.040;2023-04-01T13:23:31;10.50;99.90
19168;DHT22;9716;53.114;18.040;2023-04-01T13:26:07;10.50;99.90
19168;DHT22;9716;53.114;18.040;2023-04-01T13:28:46;10.60;99.90
19168;DHT22;9716;53.114;18.040;2023-04-01T13:31:31;10.60;99.90
19168;DHT22;9716;53.114;18.040;2023-04-01T13:34:13;10.60;99.90
19168;DHT22;9716;53.114;18.040;2023-04-01T13:36:54;10.50;99.90
19168;DHT22;9716;53.114;18.040;2023-04-01T13:39:35;10.50;99.90
19168;DHT22;9716;53.114;18.040;2023-04-01T13:42:16;10.50;99.90
19168;DHT22;9716;53.114;18.040;2023-04-01T13:44:49;10.50;99.90
19168;DHT22;9716;53.114;18.040;2023-04-01T13:51:09;10.30;99.90
19168;DHT22;9716;53.114;18.040;2023-04-01T13:54:10;10.30;99.90
19168;DHT22;9716;53.114;18.040;2023-04-01T13:56:50;10.20;99.90
19168;DHT22;9716;53.114;18.040;2023-04-01T14:02:45;10.00;99.90
19168;DHT22;9716;53.114;18.040;2023-04-01T14:08:20;9.80;99.90
19168;DHT22;9716;53.114;18.040;2023-04-01T14:11:07;9.70;99.90
19168;DHT22;9716;53.114;18.040;2023-04-01T14:13:47;9.60;99.90
19168;DHT22;9716;53.114;18.040;2023-04-01T14:16:34;9.60;99.90
19168;DHT22;9716;53.114;18.040;2023-04-01T14:19:17;9.50;99.90
19168;DHT22;9716;53.114;18.040;2023-04-01T14:21:56;9.40;99.90
19168;DHT22;9716;53.114;18.040;2023-04-01T14:24:45;9.30;99.90
19168;DHT22;9716;53.114;18.040;2023-04-01T14:27:36;9.30;99.90
19168;DHT22;9716;53.114;18.040;2023-04-01T14:30:20;9.20;99.90
19168;DHT22;9716;53.114;18.040;2023-04-01T14:32:57;9.10;99.90
19168;DHT22;9716;53.114;18.040;2023-04-01T14:35:35;9.10;99.90
19168;DHT22;9716;53.114;18.040;2023-04-01T14:38:28;9.10;99.90
19168;DHT22;9716;53.114;18.040;2023-04-01T14:41:06;9.10;99.90
19168;DHT22;9716;53.114;18.040;2023-04-01T14:50:05;9.00;99.90
19168;DHT22;9716;53.114;18.040;2023-04-01T14:52:37;8.90;99.90
19168;DHT22;9716;53.114;18.040;2023-04-01T14:55:20;8.90;99.90
19168;DHT22;9716;53.114;18.040;2023-04-01T14:58:07;8.80;99.90
19168;DHT22;9716;53.114;18.040;2023-04-01T15:00:55;8.80;99.90
19168;DHT22;9716;53.114;18.040;2023-04-01T15:03:29;8.80;99.90
19168;DHT22;9716;53.114;18.040;2023-04-01T15:06:16;8.80;99.90
19168;DHT22;9716;53.114;18.040;2023-04-01T15:08:52;8.80;99.90
19168;DHT22;9716;53.114;18.040;2023-04-01T15:11:28;8.80;99.90
19168;DHT22;9716;53.114;18.040;2023-04-01T15:14:21;8.80;99.90
19168;DHT22;9716;53.114;18.040;2023-04-01T15:17:03;8.80;99.90
19168;DHT22;9716;53.114;18.040;2023-04-01T15:19:44;8.80;99.90
19168;DHT22;9716;53.114;18.040;2023-04-01T15:22:34;8.80;99.90
19168;DHT22;9716;53.114;18.040;2023-04-01T15:25:21;8.80;99.90
19168;DHT22;9716;53.114;18.040;2023-04-01T15:27:55;8.70;99.90
19168;DHT22;9716;53.114;18.040;2023-04-01T15:30:30;8.60;99.90
19168;DHT22;9716;53.114;18.040;2023-04-01T15:36:24;8.60;99.90
19168;DHT22;9716;53.114;18.040;2023-04-01T15:39:02;8.50;99.90
19168;DHT22;9716;53.114;18.040;2023-04-01T15:41:39;8.50;99.90
19168;DHT22;9716;53.114;18.040;2023-04-01T15:44:54;8.50;99.90
19168;DHT22;9716;53.114;18.040;2023-04-01T15:47:37;8.50;99.90
19168;DHT22;9716;53.114;18.040;2023-04-01T15:50:37;8.50;99.90
19168;DHT22;9716;53.114;18.040;2023-04-01T15:56:44;8.40;99.90
19168;DHT22;9716;53.114;18.040;2023-04-01T15:59:41;8.30;99.90
19168;DHT22;9716;53.114;18.040;2023-04-01T16:02:19;8.30;99.90
19168;DHT22;9716;53.114;18.040;2023-04-01T16:04:56;8.30;99.90
19168;DHT22;9716;53.114;18.040;2023-04-01T16:07:47;8.30;99.90
19168;DHT22;9716;53.114;18.040;2023-04-01T16:10:27;8.20;99.90
19168;DHT22;9716;53.114;18.040;2023-04-01T16:13:17;8.10;99.90
19168;DHT22;9716;53.114;18.040;2023-04-01T16:15:54;8.00;99.90
19168;DHT22;9716;53.114;18.040;2023-04-01T16:18:37;7.90;99.90
19168;DHT22;9716;53.114;18.040;2023-04-01T16:21:21;7.90;99.90
19168;DHT22;9716;53.114;18.040;2023-04-01T16:23:56;7.80;99.90
19168;DHT22;9716;53.114;18.040;2023-04-01T16:26:29;7.80;99.90
19168;DHT22;9716;53.114;18.040;2023-04-01T16:29:09;7.90;99.90
19168;DHT22;9716;53.114;18.040;2023-04-01T16:31:45;7.70;99.90
19168;DHT22;9716;53.114;18.040;2023-04-01T16:34:18;7.70;99.90
19168;DHT22;9716;53.114;18.040;2023-04-01T16:36:49;7.70;99.90
19168;DHT22;9716;53.114;18.040;2023-04-01T16:39:30;7.70;99.90
19168;DHT22;9716;53.114;18.040;2023-04-01T16:42:19;7.60;99.90
19168;DHT22;9716;53.114;18.040;2023-04-01T16:44:54;7.60;99.90
19168;DHT22;9716;53.114;18.040;2023-04-01T16:47:29;7.50;99.90
19168;DHT22;9716;53.114;18.040;2023-04-01T16:50:00;7.50;99.90
19168;DHT22;9716;53.114;18.040;2023-04-01T16:52:51;7.40;99.90
19168;DHT22;9716;53.114;18.040;2023-04-01T16:55:35;7.40;99.90
19168;DHT22;9716;53.114;18.040;2023-04-01T16:58:10;7.30;99.90
19168;DHT22;9716;53.114;18.040;2023-04-01T17:00:49;7.30;99.90
19168;DHT22;9716;53.114;18.040;2023-04-01T17:03:25;7.30;99.90
19168;DHT22;9716;53.114;18.040;2023-04-01T17:06:15;7.20;99.90
19168;DHT22;9716;53.114;18.040;2023-04-01T17:09:02;7.20;99.90
19168;DHT22;9716;53.114;18.040;2023-04-01T17:11:39;7.10;99.90
19168;DHT22;9716;53.114;18.040;2023-04-01T17:14:16;7.10;99.90
19168;DHT22;9716;53.114;18.040;2023-04-01T17:17:04;7.10;99.90
19168;DHT22;9716;53.114;18.040;2023-04-01T17:19:42;7.10;99.90
19168;DHT22;9716;53.114;18.040;2023-04-01T17:22:21;7.10;99.90
19168;DHT22;9716;53.114;18.040;2023-04-01T17:25:08;7.10;99.90
19168;DHT22;9716;53.114;18.040;2023-04-01T17:27:44;7.10;99.90
19168;DHT22;9716;53.114;18.040;2023-04-01T17:30:28;7.00;99.90
19168;DHT22;9716;53.114;18.040;2023-04-01T17:35:58;7.00;99.90
19168;DHT22;9716;53.114;18.040;2023-04-01T17:38:46;7.00;99.90
19168;DHT22;9716;53.114;18.040;2023-04-01T17:41:28;6.90;99.90
19168;DHT22;9716;53.114;18.040;2023-04-01T17:44:07;6.90;99.90
19168;DHT22;9716;53.114;18.040;2023-04-01T17:46:59;6.80;99.90
19168;DHT22;9716;53.114;18.040;2023-04-01T17:49:35;6.80;99.90
19168;DHT22;9716;53.114;18.040;2023-04-01T17:52:13;6.80;99.90
19168;DHT22;9716;53.114;18.040;2023-04-01T17:54:48;6.70;99.90
19168;DHT22;9716;53.114;18.040;2023-04-01T17:57:38;6.70;99.90
19168;DHT22;9716;53.114;18.040;2023-04-01T18:00:19;6.70;99.90
19168;DHT22;9716;53.114;18.040;2023-04-01T18:03:00;6.60;99.90
19168;DHT22;9716;53.114;18.040;2023-04-01T18:05:45;6.60;99.90
19168;DHT22;9716;53.114;18.040;2023-04-01T18:08:26;6.60;99.90
19168;DHT22;9716;53.114;18.040;2023-04-01T18:11:08;6.50;99.90
19168;DHT22;9716;53.114;18.040;2023-04-01T18:13:58;6.40;99.90
19168;DHT22;9716;53.114;18.040;2023-04-01T18:16:41;6.30;99.90
19168;DHT22;9716;53.114;18.040;2023-04-01T18:19:19;6.20;99.90